National Weather Service Raw Text Product

Displaying AFOS PIL: TAFALO Received: 2018-01-03 17:26 UTC


744 
FTUS43 KDMX 031726 AAB
TAFALO
TAF AMD
KALO 031726Z 0317/0412 33016G23KT P6SM SKC
     FM032300 32010KT P6SM FEW250
     FM040800 33005KT P6SM FEW250=